| time (UTC) | temp C | wind direction | speed KPH | gust KPH | rain 1hr cm | rain 24hr cm | rain mn cm | humidity % | barometer mb |
| 20260507203117 | 21 | 272 | 4.8 | 16.1 | 0.00 | 0.00 | 0.00 | 66 | 1014.1 |
| 20260507202110 | 21 | 269 | 4.8 | 16.1 | 0.00 | 0.00 | 0.00 | 65 | 1014.1 |
| 20260507201053 | 21 | 299 | 4.8 | 12.9 | 0.00 | 0.00 | 0.00 | 64 | 1014.2 |
| 20260507200023 | 22 | 221 | 4.8 | 14.5 | 0.00 | 0.00 | 0.00 | 62 | 1014.1 |
| 20260507195037 | 21 | 264 | 3.2 | 14.5 | 0.00 | 0.00 | 0.00 | 65 | 1014.2 |
| 20260507194010 | 21 | 252 | 4.8 | 14.5 | 0.00 | 0.00 | 0.00 | 67 | 1014.1 |
| 20260507192958 | 21 | 276 | 4.8 | 14.5 | 0.00 | 0.00 | 0.00 | 66 | 1014.1 |
| 20260507185805 | 21 | 294 | 3.2 | 14.5 | 0.00 | 0.00 | 0.00 | 68 | 1014.5 |
| 20260507184752 | 21 | 271 | 4.8 | 12.9 | 0.00 | 0.00 | 0.00 | 65 | 1014.5 |
| 20260507183810 | 21 | 329 | 3.2 | 12.9 | 0.00 | 0.00 | 0.00 | 65 | 1014.6 |
| 20260507182834 | 21 | 264 | 3.2 | 16.1 | 0.00 | 0.00 | 0.00 | 66 | 1014.7 |
| 20260507181821 | 21 | 272 | 3.2 | 16.1 | 0.00 | 0.00 | 0.00 | 67 | 1014.7 |
| 20260507180827 | 21 | 266 | 1.6 | 9.7 | 0.00 | 0.00 | 0.00 | 65 | 1014.8 |
| 20260507175755 | 20 | 250 | 1.6 | 12.9 | 0.00 | 0.00 | 0.00 | 68 | 1014.8 |
| 20260507174752 | 19 | 286 | 1.6 | 9.7 | 0.00 | 0.00 | 0.00 | 71 | 1014.8 |
| 20260507173801 | 19 | 269 | 3.2 | 9.7 | 0.00 | 0.00 | 0.00 | 72 | 1014.9 |
| 20260507172802 | 19 | 242 | 3.2 | 14.5 | 0.00 | 0.00 | 0.00 | 73 | 1014.9 |
| 20260507165416 | 18 | 289 | 0.0 | 3.2 | 0.00 | 0.00 | 0.00 | 75 | 1015.1 |
| 20260507164426 | 18 | 296 | 0.0 | 0.0 | 0.00 | 0.00 | 0.00 | 77 | 1015.2 |
| 20260507162219 | 17 | 241 | 0.0 | 0.0 | 0.00 | 0.00 | 0.00 | 80 | 1015.3 |
| 20260507161203 | 17 | 259 | 0.0 | 3.2 | 0.00 | 0.00 | 0.00 | 80 | 1015.3 |
| 20260507160142 | 17 | 302 | 0.0 | 0.0 | 0.00 | 0.00 | 0.00 | 81 | 1015.3 |
| 20260507155114 | 17 | 296 | 0.0 | 0.0 | 0.00 | 0.00 | 0.00 | 81 | 1015.4 |
| 20260507154040 | 17 | 296 | 0.0 | 0.0 | 0.00 | 0.00 | 0.00 | 82 | 1015.4 |
| 20260507153008 | 16 | 296 | 0.0 | 0.0 | 0.00 | 0.00 | 0.00 | 84 | 1015.3 |
| 20260507151939 | 16 | 296 | 0.0 | 0.0 | 0.00 | 0.00 | 0.00 | 85 | 1015.2 |
| 20260507150948 | 16 | 296 | 0.0 | 0.0 | 0.00 | 0.00 | 0.00 | 86 | 1015.2 |
| 20260507145928 | 16 | 297 | 0.0 | 0.0 | 0.00 | 0.00 | 0.00 | 87 | 1015.2 |
| 20260507144924 | 16 | 297 | 0.0 | 0.0 | 0.00 | 0.00 | 0.00 | 88 | 1015.0 |
| 20260507143935 | 15 | 297 | 0.0 | 0.0 | 0.00 | 0.00 | 0.00 | 89 | 1015.1 |
| 20260507142908 | 15 | 297 | 0.0 | 0.0 | 0.00 | 0.00 | 0.00 | 90 | 1014.9 |
| 20260507140744 | 15 | 297 | 0.0 | 0.0 | 0.00 | 0.00 | 0.00 | 91 | 1014.8 |
| 20260507135755 | 14 | 297 | 0.0 | 0.0 | 0.00 | 0.00 | 0.00 | 92 | 1014.7 |
| 20260507134727 | 14 | 297 | 0.0 | 0.0 | 0.00 | 0.00 | 0.00 | 92 | 1014.7 |
| 20260507133658 | 14 | 297 | 0.0 | 0.0 | 0.00 | 0.00 | 0.00 | 92 | 1014.5 |
| 20260507132718 | 13 | 297 | 0.0 | 0.0 | 0.00 | 0.00 | 0.00 | 92 | 1014.6 |
| 20260507125529 | 13 | 297 | 0.0 | 0.0 | 0.00 | 0.00 | 0.00 | 92 | 1014.6 |
| 20260507124505 | 13 | 297 | 0.0 | 0.0 | 0.00 | 0.00 | 0.00 | 92 | 1014.5 |
| 20260507123530 | 13 | 297 | 0.0 | 0.0 | 0.00 | 0.00 | 0.00 | 92 | 1014.3 |
| 20260507122457 | 13 | 297 | 0.0 | 0.0 | 0.00 | 0.00 | 0.00 | 93 | 1014.3 |
| 20260507120335 | 13 | 297 | 0.0 | 0.0 | 0.00 | 0.00 | 0.00 | 93 | 1014.2 |
| 20260507115307 | 13 | 297 | 0.0 | 0.0 | 0.00 | 0.00 | 0.00 | 93 | 1014.2 |
| 20260507114255 | 13 | 297 | 0.0 | 0.0 | 0.00 | 0.00 | 0.00 | 94 | 1014.2 |
| 20260507113250 | 13 | 297 | 0.0 | 0.0 | 0.00 | 0.00 | 0.00 | 93 | 1014.2 |
| 20260507112301 | 13 | 297 | 0.0 | 0.0 | 0.00 | 0.00 | 0.00 | 93 | 1014.3 |
| 20260507111242 | 13 | 297 | 0.0 | 0.0 | 0.00 | 0.00 | 0.00 | 93 | 1014.4 |
| 20260507110221 | 12 | 297 | 0.0 | 0.0 | 0.00 | 0.00 | 0.00 | 94 | 1014.4 |
| 20260507105203 | 12 | 297 | 0.0 | 0.0 | 0.00 | 0.00 | 0.00 | 93 | 1014.5 |
| 20260507103100 | 12 | 297 | 0.0 | 0.0 | 0.00 | 0.00 | 0.00 | 93 | 1014.6 |
| 20260507102031 | 13 | 297 | 0.0 | 0.0 | 0.00 | 0.00 | 0.00 | 93 | 1014.7 |
| 20260507101022 | 13 | 297 | 0.0 | 0.0 | 0.00 | 0.00 | 0.00 | 93 | 1014.7 |
| 20260507094855 | 13 | 297 | 0.0 | 0.0 | 0.00 | 0.00 | 0.00 | 94 | 1014.8 |
| 20260507093835 | 13 | 297 | 0.0 | 0.0 | 0.00 | 0.00 | 0.00 | 93 | 1014.9 |
| 20260507092802 | 13 | 297 | 0.0 | 0.0 | 0.00 | 0.00 | 0.00 | 94 | 1014.9 |
| 20260507091731 | 13 | 297 | 0.0 | 0.0 | 0.00 | 0.00 | 0.00 | 93 | 1015.1 |
| 20260507085605 | 13 | 297 | 0.0 | 0.0 | 0.00 | 0.00 | 0.00 | 94 | 1015.3 |
| 20260507084604 | 13 | 297 | 0.0 | 0.0 | 0.00 | 0.00 | 0.00 | 94 | 1015.4 |
| 20260507083530 | 13 | 297 | 0.0 | 0.0 | 0.00 | 0.00 | 0.00 | 93 | 1015.4 |
| 20260507082505 | 13 | 297 | 0.0 | 0.0 | 0.00 | 0.00 | 0.00 | 93 | 1015.5 |
| 20260507081519 | 13 | 297 | 0.0 | 0.0 | 0.00 | 0.00 | 0.00 | 93 | 1015.6 |
| 20260507080458 | 13 | 297 | 0.0 | 0.0 | 0.00 | 0.00 | 0.00 | 92 | 1015.7 |
| 20260507073225 | 13 | 297 | 0.0 | 0.0 | 0.00 | 0.00 | 0.00 | 92 | 1015.8 |
| 20260507072241 | 13 | 297 | 0.0 | 0.0 | 0.00 | 0.00 | 0.00 | 92 | 1015.8 |
| 20260507071230 | 13 | 297 | 0.0 | 0.0 | 0.00 | 0.00 | 0.00 | 92 | 1015.8 |
| 20260507065105 | 13 | 297 | 0.0 | 0.0 | 0.00 | 0.00 | 0.00 | 92 | 1016.0 |
| 20260507064108 | 13 | 297 | 0.0 | 0.0 | 0.00 | 0.00 | 0.00 | 92 | 1016.0 |
| 20260507063124 | 14 | 297 | 0.0 | 0.0 | 0.00 | 0.00 | 0.00 | 91 | 1016.0 |
| 20260507062112 | 14 | 297 | 0.0 | 0.0 | 0.00 | 0.00 | 0.00 | 91 | 1016.0 |
| 20260507061114 | 14 | 297 | 0.0 | 0.0 | 0.00 | 0.00 | 0.00 | 91 | 1016.0 |
| 20260507060118 | 14 | 297 | 0.0 | 0.0 | 0.00 | 0.00 | 0.00 | 91 | 1016.1 |
| 20260507055136 | 15 | 297 | 0.0 | 0.0 | 0.00 | 0.00 | 0.00 | 90 | 1015.9 |
| 20260507054149 | 15 | 297 | 0.0 | 0.0 | 0.00 | 0.00 | 0.00 | 90 | 1016.0 |
| 20260507053204 | 15 | 297 | 0.0 | 0.0 | 0.00 | 0.00 | 0.00 | 90 | 1016.0 |
| 20260507051051 | 15 | 297 | 0.0 | 0.0 | 0.00 | 0.00 | 0.00 | 89 | 1016.0 |
| 20260507050022 | 15 | 297 | 0.0 | 0.0 | 0.00 | 0.00 | 0.00 | 89 | 1016.0 |
| 20260507045035 | 15 | 297 | 0.0 | 0.0 | 0.00 | 0.00 | 0.00 | 89 | 1016.0 |
| 20260507044048 | 15 | 297 | 0.0 | 0.0 | 0.00 | 0.00 | 0.00 | 89 | 1015.9 |
| 20260507041837 | 15 | 297 | 0.0 | 0.0 | 0.00 | 0.00 | 0.00 | 88 | 1015.8 |
| 20260507040852 | 15 | 297 | 0.0 | 0.0 | 0.00 | 0.00 | 0.00 | 87 | 1015.7 |
| 20260507035825 | 16 | 297 | 0.0 | 0.0 | 0.00 | 0.00 | 0.00 | 87 | 1015.8 |
| 20260507034826 | 16 | 297 | 0.0 | 0.0 | 0.00 | 0.00 | 0.00 | 86 | 1015.6 |
| 20260507033801 | 16 | 297 | 0.0 | 0.0 | 0.00 | 0.00 | 0.00 | 86 | 1015.5 |
| 20260507032732 | 16 | 297 | 0.0 | 0.0 | 0.00 | 0.00 | 0.00 | 86 | 1015.4 |
| 20260507031743 | 16 | 297 | 0.0 | 0.0 | 0.00 | 0.00 | 0.00 | 85 | 1015.4 |
| 20260507030717 | 16 | 295 | 0.0 | 0.0 | 0.00 | 0.00 | 0.00 | 84 | 1015.3 |
| 20260507025649 | 16 | 295 | 1.6 | 9.7 | 0.00 | 0.00 | 0.00 | 83 | 1015.2 |
| 20260507024700 | 16 | 282 | 0.0 | 9.7 | 0.00 | 0.00 | 0.00 | 83 | 1015.0 |
| 20260507023704 | 16 | 271 | 0.0 | 0.0 | 0.00 | 0.00 | 0.00 | 83 | 1015.0 |
| 20260507021602 | 17 | 319 | 0.0 | 0.0 | 0.00 | 0.00 | 0.00 | 81 | 1014.9 |
| 20260507020627 | 17 | 308 | 0.0 | 0.0 | 0.00 | 0.00 | 0.00 | 80 | 1014.9 |
| 20260507015648 | 18 | 249 | 1.6 | 9.7 | 0.00 | 0.00 | 0.00 | 78 | 1014.8 |
| 20260507014631 | 18 | 295 | 3.2 | 14.5 | 0.00 | 0.00 | 0.00 | 76 | 1014.7 |
| 20260507013558 | 18 | 314 | 3.2 | 16.1 | 0.00 | 0.00 | 0.00 | 75 | 1014.8 |
| 20260507012613 | 18 | 287 | 4.8 | 16.1 | 0.00 | 0.00 | 0.00 | 76 | 1014.8 |
| 20260507011548 | 18 | 271 | 4.8 | 14.5 | 0.00 | 0.00 | 0.00 | 75 | 1014.7 |
| 20260507005342 | 19 | 315 | 4.8 | 12.9 | 0.00 | 0.00 | 0.00 | 72 | 1014.8 |
| 20260507004331 | 19 | 271 | 3.2 | 16.1 | 0.00 | 0.00 | 0.00 | 71 | 1014.8 |
| 20260507003315 | 19 | 263 | 3.2 | 19.3 | 0.00 | 0.00 | 0.00 | 71 | 1014.7 |
| 20260507002338 | 19 | 279 | 4.8 | 19.3 | 0.00 | 0.00 | 0.00 | 70 | 1014.7 |
| 20260507001336 | 20 | 292 | 4.8 | 14.5 | 0.00 | 0.00 | 0.00 | 69 | 1014.5 |
| 20260507000328 | 20 | 313 | 6.4 | 16.1 | 0.00 | 0.00 | 0.00 | 69 | 1014.5 |
| 20260506235330 | 20 | 336 | 4.8 | 16.1 | 0.00 | 0.00 | 0.00 | 68 | 1014.5 |
| 20260506234309 | 20 | 331 | 4.8 | 16.1 | 0.00 | 0.00 | 0.00 | 69 | 1014.4 |
| 20260506233323 | 20 | 290 | 6.4 | 17.7 | 0.00 | 0.00 | 0.00 | 68 | 1014.5 |
| 20260506232336 | 20 | 253 | 4.8 | 19.3 | 0.00 | 0.00 | 0.00 | 67 | 1014.5 |
| 20260506231307 | 20 | 289 | 6.4 | 19.3 | 0.00 | 0.00 | 0.00 | 68 | 1014.6 |
| 20260506230325 | 20 | 252 | 4.8 | 17.7 | 0.00 | 0.00 | 0.00 | 67 | 1014.7 |
| 20260506225336 | 20 | 223 | 4.8 | 17.7 | 0.00 | 0.00 | 0.00 | 69 | 1014.7 |
| 20260506224353 | 20 | 302 | 4.8 | 19.3 | 0.00 | 0.00 | 0.00 | 65 | 1014.8 |
| 20260506223409 | 20 | 249 | 4.8 | 19.3 | 0.00 | 0.00 | 0.00 | 66 | 1014.9 |
| 20260506221229 | 20 | 289 | 6.4 | 22.5 | 0.00 | 0.00 | 0.00 | 65 | 1015.1 |
| 20260506220159 | 20 | 272 | 6.4 | 22.5 | 0.00 | 0.00 | 0.00 | 66 | 1015.1 |
| 20260506215222 | 20 | 279 | 6.4 | 22.5 | 0.00 | 0.00 | 0.00 | 64 | 1015.2 |
| 20260506214222 | 20 | 247 | 8.0 | 19.3 | 0.00 | 0.00 | 0.00 | 66 | 1015.3 |
| 20260506213152 | 20 | 317 | 6.4 | 19.3 | 0.00 | 0.00 | 0.00 | 64 | 1015.4 |
| 20260506212151 | 20 | 306 | 8.0 | 16.1 | 0.00 | 0.00 | 0.00 | 61 | 1015.4 |
| 20260506211154 | 20 | 252 | 6.4 | 19.3 | 0.00 | 0.00 | 0.00 | 62 | 1015.4 |
| 20260506205041 | 21 | 292 | 6.4 | 17.7 | 0.00 | 0.00 | 0.00 | 59 | 1015.5 |